createdAt,value
2018-01-24T00:00:45.085Z,0
2018-01-24T00:01:55.028Z,0
2018-01-24T00:03:04.722Z,0
2018-01-24T00:04:14.413Z,0
2018-01-24T00:05:24.372Z,0
2018-01-24T00:06:33.800Z,0
2018-01-24T00:07:43.745Z,0
2018-01-24T00:08:53.703Z,0
2018-01-24T00:10:03.650Z,0
2018-01-24T00:11:13.340Z,0
2018-01-24T00:12:23.023Z,0
2018-01-24T00:13:32.972Z,0
2018-01-24T00:14:42.986Z,0
2018-01-24T00:15:52.923Z,0
2018-01-24T00:17:02.907Z,0
2018-01-24T00:18:12.846Z,0
2018-01-24T00:19:22.780Z,0
2018-01-24T00:20:32.729Z,0
2018-01-24T00:21:42.665Z,0
2018-01-24T00:22:52.100Z,0
2018-01-24T00:24:01.793Z,0
2018-01-24T00:25:11.752Z,0
2018-01-24T00:26:21.700Z,0
2018-01-24T00:27:31.647Z,0
2018-01-24T00:28:41.612Z,0
2018-01-24T00:29:51.351Z,0
2018-01-24T00:31:01.047Z,0
2018-01-24T00:32:10.743Z,0
2018-01-24T00:33:20.706Z,0
2018-01-24T00:34:30.648Z,0
2018-01-24T00:35:39.823Z,0
2018-01-24T00:36:49.776Z,0
2018-01-24T00:37:59.776Z,0
2018-01-24T00:39:09.728Z,0
2018-01-24T00:40:19.162Z,0
2018-01-24T00:41:29.093Z,0
2018-01-24T00:42:39.041Z,0
2018-01-24T00:43:48.719Z,0
2018-01-24T00:44:58.660Z,0
2018-01-24T00:46:08.600Z,0
2018-01-24T00:47:18.542Z,0
2018-01-24T00:48:28.242Z,0
2018-01-24T00:49:38.258Z,0
2018-01-24T00:50:48.199Z,0
2018-01-24T00:51:58.144Z,0
2018-01-24T00:53:08.088Z,0
2018-01-24T00:54:18.048Z,0
2018-01-24T00:55:27.742Z,0
2018-01-24T00:56:37.693Z,0
2018-01-24T00:57:47.383Z,0
2018-01-24T00:58:57.383Z,0
2018-01-24T01:00:07.317Z,0
2018-01-24T01:01:17.269Z,0
2018-01-24T01:02:27.212Z,0
2018-01-24T01:03:37.153Z,0
2018-01-24T01:04:46.844Z,0
2018-01-24T01:05:56.538Z,0
2018-01-24T01:07:06.482Z,0
2018-01-24T01:08:16.178Z,0
2018-01-24T01:09:25.859Z,0
2018-01-24T01:10:35.797Z,0
2018-01-24T01:11:45.749Z,0
2018-01-24T01:12:55.437Z,0
2018-01-24T01:14:05.398Z,0
2018-01-24T01:15:15.088Z,0
2018-01-24T01:16:24.772Z,0
2018-01-24T01:17:34.456Z,0
2018-01-24T01:18:44.394Z,0
2018-01-24T01:19:54.077Z,0
2018-01-24T01:21:04.015Z,0
2018-01-24T01:22:13.959Z,0
2018-01-24T01:23:23.924Z,0
2018-01-24T01:24:33.868Z,0
2018-01-24T01:25:43.818Z,0
2018-01-24T01:26:53.512Z,0
2018-01-24T01:28:03.453Z,0
2018-01-24T01:29:12.878Z,0
2018-01-24T01:30:22.819Z,0
2018-01-24T01:31:32.779Z,0
2018-01-24T01:32:42.720Z,0
2018-01-24T01:33:52.660Z,0
2018-01-24T01:35:02.596Z,0
2018-01-24T01:36:12.550Z,0
2018-01-24T01:37:22.508Z,0
2018-01-24T01:38:32.452Z,0
2018-01-24T01:39:42.453Z,0
2018-01-24T01:40:52.140Z,0
2018-01-24T01:42:01.857Z,0
2018-01-24T01:43:11.542Z,0
2018-01-24T01:44:21.237Z,0
2018-01-24T01:45:30.668Z,0
2018-01-24T01:46:40.861Z,0
2018-01-24T01:47:50.853Z,0
2018-01-24T01:49:00.902Z,0
2018-01-24T01:50:10.846Z,0
2018-01-24T01:51:20.792Z,0
2018-01-24T01:52:30.733Z,0
2018-01-24T01:53:40.689Z,0
2018-01-24T01:54:50.674Z,0
2018-01-24T01:56:00.616Z,0
2018-01-24T01:57:10.559Z,0
2018-01-24T01:58:20.489Z,0
2018-01-24T01:59:30.425Z,0
2018-01-24T02:00:40.111Z,0
2018-01-24T02:01:49.819Z,0
2018-01-24T02:02:59.775Z,0
2018-01-24T02:04:09.714Z,0
2018-01-24T02:05:19.401Z,0
2018-01-24T02:06:29.366Z,0
2018-01-24T02:07:39.307Z,0
2018-01-24T02:08:49.241Z,0
2018-01-24T02:09:59.207Z,0
2018-01-24T02:11:09.162Z,0
2018-01-24T02:12:19.106Z,0
2018-01-24T02:13:28.788Z,0
2018-01-24T02:14:38.735Z,0
2018-01-24T02:15:48.680Z,0
2018-01-24T02:16:58.638Z,0
2018-01-24T02:18:08.586Z,0
2018-01-24T02:19:18.011Z,0
2018-01-24T02:20:27.952Z,0
2018-01-24T02:21:37.373Z,0
2018-01-24T02:22:47.319Z,0
2018-01-24T02:23:57.270Z,0
2018-01-24T02:25:06.981Z,0
2018-01-24T02:26:16.671Z,0
2018-01-24T02:27:26.616Z,0
2018-01-24T02:28:36.563Z,0
2018-01-24T02:29:46.506Z,0
2018-01-24T02:30:56.449Z,0
2018-01-24T02:32:06.389Z,0
2018-01-24T02:33:16.080Z,0
2018-01-24T02:34:26.047Z,0
2018-01-24T02:35:36.004Z,0
2018-01-24T02:36:45.439Z,0
2018-01-24T02:37:55.160Z,0
2018-01-24T02:39:05.113Z,0
2018-01-24T02:40:15.064Z,0
2018-01-24T02:41:25.064Z,0
2018-01-24T02:42:34.759Z,0
2018-01-24T02:43:44.451Z,0
2018-01-24T02:44:54.403Z,0
2018-01-24T02:46:04.369Z,0
2018-01-24T02:47:14.338Z,0
2018-01-24T02:48:24.072Z,0
2018-01-24T02:49:34.015Z,0
2018-01-24T02:50:43.698Z,0
2018-01-24T02:51:53.647Z,0
2018-01-24T02:53:03.592Z,0
2018-01-24T02:54:13.285Z,0
2018-01-24T02:55:23.260Z,0
2018-01-24T02:56:32.962Z,0
2018-01-24T02:57:42.903Z,0
2018-01-24T02:58:52.083Z,0
2018-01-24T03:00:01.831Z,0
2018-01-24T03:01:11.773Z,0
2018-01-24T03:02:21.214Z,0
2018-01-24T03:03:31.158Z,0
2018-01-24T03:04:41.098Z,0
2018-01-24T03:05:50.792Z,0
2018-01-24T03:07:00.789Z,0
2018-01-24T03:08:10.476Z,0
2018-01-24T03:09:20.432Z,0
2018-01-24T03:10:30.624Z,0
2018-01-24T03:11:40.310Z,0
2018-01-24T03:12:50.002Z,0
2018-01-24T03:13:59.685Z,0
2018-01-24T03:15:09.378Z,0
2018-01-24T03:16:19.068Z,0
2018-01-24T03:17:29.015Z,0
2018-01-24T03:18:38.958Z,0
2018-01-24T03:19:48.641Z,0
2018-01-24T03:20:58.567Z,0
2018-01-24T03:22:08.253Z,0
2018-01-24T03:23:18.206Z,0
2018-01-24T03:24:27.690Z,0
2018-01-24T03:25:37.635Z,0
2018-01-24T03:26:47.322Z,0
2018-01-24T03:27:57.005Z,0
2018-01-24T03:29:06.709Z,0
2018-01-24T03:30:16.671Z,0
2018-01-24T03:31:26.624Z,0
2018-01-24T03:32:36.565Z,0
2018-01-24T03:33:46.520Z,0
2018-01-24T03:34:56.462Z,0
2018-01-24T03:36:06.411Z,0
2018-01-24T03:37:16.355Z,0
2018-01-24T03:38:25.782Z,0
2018-01-24T03:39:35.728Z,0
2018-01-24T03:40:45.668Z,0
2018-01-24T03:41:55.624Z,0
2018-01-24T03:43:05.577Z,0
2018-01-24T03:44:15.553Z,0
2018-01-24T03:45:25.245Z,0
2018-01-24T03:46:34.933Z,0
2018-01-24T03:47:44.864Z,0
2018-01-24T03:48:54.810Z,0
2018-01-24T03:50:04.508Z,0
2018-01-24T03:51:14.461Z,0
2018-01-24T03:52:24.409Z,0
2018-01-24T03:53:34.354Z,0
2018-01-24T03:54:44.291Z,0
2018-01-24T03:55:53.966Z,0
2018-01-24T03:57:03.910Z,0
2018-01-24T03:58:13.898Z,0
2018-01-24T03:59:23.331Z,0
2018-01-24T04:00:33.280Z,0
2018-01-24T04:01:43.222Z,0
2018-01-24T04:02:53.219Z,0
2018-01-24T04:04:02.910Z,0
2018-01-24T04:05:12.852Z,0
2018-01-24T04:06:22.968Z,0
2018-01-24T04:07:32.399Z,0
2018-01-24T04:08:42.076Z,0
2018-01-24T04:09:51.758Z,0
2018-01-24T04:11:01.689Z,0
2018-01-24T04:12:11.375Z,0
2018-01-24T04:13:21.319Z,0
2018-01-24T04:14:31.008Z,0
2018-01-24T04:15:40.956Z,0
2018-01-24T04:16:50.898Z,0
2018-01-24T04:18:00.585Z,0
2018-01-24T04:19:10.524Z,0
2018-01-24T04:20:20.466Z,0
2018-01-24T04:21:30.414Z,0
2018-01-24T04:22:40.344Z,0
2018-01-24T04:23:50.064Z,0
2018-01-24T04:25:00.020Z,0
2018-01-24T04:26:09.969Z,0
2018-01-24T04:27:19.911Z,0
2018-01-24T04:28:29.600Z,0
2018-01-24T04:29:39.282Z,0
2018-01-24T04:30:49.032Z,0
2018-01-24T04:31:58.979Z,0
2018-01-24T04:33:08.922Z,0
2018-01-24T04:34:18.867Z,0
2018-01-24T04:35:28.316Z,0
2018-01-24T04:36:38.265Z,0
2018-01-24T04:37:48.261Z,0
2018-01-24T04:38:58.207Z,0
2018-01-24T04:40:07.900Z,0
2018-01-24T04:41:17.593Z,0
2018-01-24T04:42:27.542Z,0
2018-01-24T04:43:37.482Z,0
2018-01-24T04:44:47.427Z,0
2018-01-24T04:45:57.631Z,0
2018-01-24T04:47:07.582Z,0
2018-01-24T04:48:17.521Z,0
2018-01-24T04:49:27.235Z,0
2018-01-24T04:50:37.180Z,0
2018-01-24T04:51:47.365Z,0
2018-01-24T04:52:57.066Z,0
2018-01-24T04:54:07.015Z,0
2018-01-24T04:55:16.958Z,0
2018-01-24T04:56:26.654Z,0
2018-01-24T04:57:36.621Z,0
2018-01-24T04:58:46.309Z,0
2018-01-24T04:59:56.251Z,0
2018-01-24T05:01:06.191Z,0
2018-01-24T05:02:16.146Z,0
2018-01-24T05:03:26.097Z,0
2018-01-24T05:04:36.046Z,0
2018-01-24T05:05:45.980Z,0
2018-01-24T05:06:55.919Z,0
2018-01-24T05:08:05.852Z,0
2018-01-24T05:09:15.539Z,0
2018-01-24T05:10:25.488Z,0
2018-01-24T05:11:35.430Z,0
2018-01-24T05:12:45.380Z,0
2018-01-24T05:13:54.833Z,0
2018-01-24T05:15:04.522Z,0
2018-01-24T05:16:14.478Z,0
2018-01-24T05:17:24.425Z,0
2018-01-24T05:18:34.109Z,0
2018-01-24T05:19:43.792Z,0
2018-01-24T05:20:53.783Z,0
2018-01-24T05:22:03.466Z,0
2018-01-24T05:23:13.405Z,0
2018-01-24T05:24:23.390Z,0
2018-01-24T05:25:33.079Z,0
2018-01-24T05:26:43.042Z,0
2018-01-24T05:27:53.008Z,0
2018-01-24T05:29:02.692Z,0
2018-01-24T05:30:12.630Z,0
2018-01-24T05:31:22.583Z,0
2018-01-24T05:32:32.330Z,0
2018-01-24T05:33:42.013Z,0
2018-01-24T05:34:51.705Z,0
2018-01-24T05:36:01.639Z,0
2018-01-24T05:37:11.338Z,0
2018-01-24T05:38:21.041Z,0
2018-01-24T05:39:30.742Z,0
2018-01-24T05:40:40.688Z,0
2018-01-24T05:41:50.369Z,0
2018-01-24T05:43:00.319Z,0
2018-01-24T05:44:10.250Z,0
2018-01-24T05:45:20.189Z,0
2018-01-24T05:46:29.884Z,0
2018-01-24T05:47:39.572Z,0
2018-01-24T05:48:49.523Z,0
2018-01-24T05:49:59.472Z,0
2018-01-24T05:51:09.416Z,0
2018-01-24T05:52:18.847Z,0
2018-01-24T05:53:28.305Z,0
2018-01-24T05:54:37.985Z,0
2018-01-24T05:55:47.988Z,0
2018-01-24T05:56:57.668Z,0
2018-01-24T05:58:07.611Z,0
2018-01-24T05:59:17.300Z,0
2018-01-24T06:00:26.988Z,0
2018-01-24T06:01:37.184Z,0
2018-01-24T06:02:47.125Z,0
2018-01-24T06:03:57.073Z,0
2018-01-24T06:05:07.025Z,0
2018-01-24T06:06:16.960Z,0
2018-01-24T06:07:26.924Z,0
2018-01-24T06:08:36.609Z,0
2018-01-24T06:09:46.546Z,0
2018-01-24T06:10:56.246Z,0
2018-01-24T06:12:06.181Z,0
2018-01-24T06:13:16.118Z,0
2018-01-24T06:14:26.065Z,0
2018-01-24T06:15:36.068Z,0
2018-01-24T06:16:46.058Z,0
2018-01-24T06:17:56.009Z,0
2018-01-24T06:19:05.959Z,0
2018-01-24T06:20:15.922Z,0
2018-01-24T06:21:25.879Z,0
2018-01-24T06:22:35.822Z,0
2018-01-24T06:23:45.776Z,0
2018-01-24T06:24:55.715Z,0
2018-01-24T06:26:05.722Z,0
2018-01-24T06:27:15.412Z,0
2018-01-24T06:28:25.349Z,0
2018-01-24T06:29:35.298Z,0
2018-01-24T06:30:45.020Z,0
2018-01-24T06:31:54.978Z,4
2018-01-24T06:33:04.928Z,4
2018-01-24T06:34:14.371Z,4
2018-01-24T06:35:24.084Z,8
2018-01-24T06:36:34.022Z,4
2018-01-24T06:37:43.741Z,8
2018-01-24T06:38:53.693Z,8
2018-01-24T06:40:03.642Z,8
2018-01-24T06:41:13.600Z,12
2018-01-24T06:42:23.546Z,12
2018-01-24T06:43:33.516Z,16
2018-01-24T06:44:43.450Z,20
2018-01-24T06:45:53.389Z,20
2018-01-24T06:47:02.823Z,24
2018-01-24T06:48:13.049Z,28
2018-01-24T06:49:22.747Z,36
2018-01-24T06:50:32.821Z,40
2018-01-24T06:51:42.805Z,48
2018-01-24T06:52:52.804Z,56
2018-01-24T06:54:02.247Z,68
2018-01-24T06:55:12.237Z,80
2018-01-24T06:56:22.186Z,92
2018-01-24T06:57:32.158Z,104
2018-01-24T06:58:42.105Z,120
2018-01-24T06:59:52.052Z,136
2018-01-24T07:01:02.009Z,156
2018-01-24T07:02:11.709Z,172
2018-01-24T07:03:21.399Z,180
2018-01-24T07:04:31.097Z,196
2018-01-24T07:05:41.062Z,216
2018-01-24T07:06:51.019Z,232
2018-01-24T07:08:01.292Z,236
2018-01-24T07:09:11.259Z,260
2018-01-24T07:10:21.003Z,300
2018-01-24T07:11:30.710Z,304
2018-01-24T07:12:40.656Z,316
2018-01-24T07:13:50.652Z,348
2018-01-24T07:15:00.365Z,392
2018-01-24T07:16:10.347Z,380
2018-01-24T07:17:20.299Z,408
2018-01-24T07:18:30.246Z,400
2018-01-24T07:19:40.245Z,420
2018-01-24T07:20:50.222Z,448
2018-01-24T07:21:59.666Z,496
2018-01-24T07:23:09.385Z,548
2018-01-24T07:24:19.347Z,604
2018-01-24T07:25:28.822Z,740
2018-01-24T07:26:38.782Z,768
2018-01-24T07:27:48.737Z,784
2018-01-24T07:28:58.936Z,856
2018-01-24T07:30:08.915Z,896
2018-01-24T07:31:18.871Z,964
2018-01-24T07:32:28.303Z,1216
2018-01-24T07:33:38.032Z,1180
2018-01-24T07:34:47.994Z,1172
2018-01-24T07:35:57.966Z,1256
2018-01-24T07:37:07.654Z,1344
2018-01-24T07:38:17.358Z,1388
2018-01-24T07:39:27.057Z,1540
2018-01-24T07:40:37.008Z,1652
2018-01-24T07:41:46.701Z,1592
2018-01-24T07:42:56.660Z,1472
2018-01-24T07:44:06.684Z,1644
2018-01-24T07:45:16.642Z,1956
2018-01-24T07:46:26.338Z,2088
2018-01-24T07:47:36.317Z,2140
2018-01-24T07:48:46.017Z,2248
2018-01-24T07:49:55.998Z,2372
2018-01-24T07:51:05.955Z,2604
2018-01-24T07:52:15.908Z,2836
2018-01-24T07:53:25.903Z,2996
2018-01-24T07:54:35.612Z,3064
2018-01-24T07:55:45.570Z,3136
2018-01-24T07:56:55.289Z,3212
2018-01-24T07:58:04.729Z,3372
2018-01-24T07:59:14.676Z,3356
2018-01-24T08:00:24.373Z,3356
2018-01-24T08:01:34.316Z,3504
2018-01-24T08:02:44.278Z,3584
2018-01-24T08:03:53.977Z,3592
2018-01-24T08:05:03.926Z,3420
2018-01-24T08:06:13.877Z,3228
2018-01-24T08:07:23.599Z,3048
2018-01-24T08:08:33.563Z,3212
2018-01-24T08:09:43.257Z,3212
2018-01-24T08:10:52.710Z,3220
2018-01-24T08:12:02.659Z,3352
2018-01-24T08:13:12.358Z,3120
2018-01-24T08:14:22.040Z,3096
2018-01-24T08:15:32.001Z,3316
2018-01-24T08:16:42.484Z,3452
2018-01-24T08:17:52.212Z,3624
2018-01-24T08:19:02.177Z,3808
2018-01-24T08:20:12.146Z,4496
2018-01-24T08:21:22.102Z,5044
2018-01-24T08:22:32.049Z,5704
2018-01-24T08:23:41.773Z,6388
2018-01-24T08:24:51.730Z,7068
2018-01-24T08:26:01.677Z,7984
2018-01-24T08:27:11.640Z,8292
2018-01-24T08:28:21.628Z,8532
2018-01-24T08:29:31.613Z,8360
2018-01-24T08:30:41.619Z,8224
2018-01-24T08:31:51.584Z,8840
2018-01-24T08:33:01.294Z,9852
2018-01-24T08:34:10.997Z,10504
2018-01-24T08:35:20.952Z,11152
2018-01-24T08:36:30.934Z,11288
2018-01-24T08:37:40.889Z,14284
2018-01-24T08:38:50.641Z,12940
2018-01-24T08:40:00.856Z,14200
2018-01-24T08:41:10.824Z,14116
2018-01-24T08:42:20.812Z,11164
2018-01-24T08:43:36.965Z,11036
2018-01-24T08:44:47.156Z,13940
2018-01-24T08:45:57.097Z,13504
2018-01-24T08:47:06.798Z,13176
2018-01-24T08:48:16.768Z,13164
2018-01-24T08:49:26.463Z,13700
2018-01-24T08:50:36.375Z,13372
2018-01-24T08:51:46.089Z,13200
2018-01-24T08:52:56.048Z,13180
2018-01-24T08:54:05.742Z,13116
2018-01-24T08:55:15.697Z,12784
2018-01-24T08:56:25.657Z,13076
2018-01-24T08:57:35.623Z,13736
2018-01-24T08:58:45.576Z,13988
2018-01-24T08:59:55.274Z,13768
2018-01-24T09:01:05.216Z,13568
2018-01-24T09:02:14.661Z,13864
2018-01-24T09:03:24.640Z,13976
2018-01-24T09:04:34.595Z,14044
2018-01-24T09:05:44.550Z,14540
2018-01-24T09:06:54.240Z,14556
2018-01-24T09:08:04.209Z,15192
2018-01-24T09:09:13.918Z,15752
2018-01-24T09:10:23.654Z,16896
2018-01-24T09:11:33.605Z,17504
2018-01-24T09:12:43.584Z,18688
2018-01-24T09:13:53.549Z,19936
2018-01-24T09:15:03.524Z,20512
2018-01-24T09:16:13.503Z,21056
2018-01-24T09:17:23.521Z,22624
2018-01-24T09:18:33.261Z,23456
2018-01-24T09:19:43.232Z,24224
2018-01-24T09:20:52.924Z,24928
2018-01-24T09:22:02.660Z,26240
2018-01-24T09:23:12.621Z,26752
2018-01-24T09:24:22.601Z,26944
2018-01-24T09:25:32.311Z,27520
2018-01-24T09:26:42.310Z,24320
2018-01-24T09:27:52.276Z,25088
2018-01-24T09:29:02.249Z,29088
2018-01-24T09:30:11.979Z,26848
2018-01-24T09:31:21.915Z,25312
2018-01-24T09:32:31.886Z,25536
2018-01-24T09:33:41.576Z,25824
2018-01-24T09:34:51.310Z,27200
2018-01-24T09:36:01.284Z,28160
2018-01-24T09:37:10.984Z,26592
2018-01-24T09:38:20.964Z,24672
2018-01-24T09:39:30.944Z,26272
2018-01-24T09:40:40.928Z,32256
2018-01-24T09:41:50.910Z,38720
2018-01-24T09:43:00.882Z,40768
2018-01-24T09:44:10.848Z,39616
2018-01-24T09:45:20.612Z,38656
2018-01-24T09:46:30.325Z,42784
2018-01-24T09:47:40.281Z,40128
2018-01-24T09:48:50.233Z,34368
2018-01-24T09:50:00.196Z,26112
2018-01-24T09:51:09.892Z,28608
2018-01-24T09:52:19.607Z,30176
2018-01-24T09:53:29.340Z,30016
2018-01-24T09:54:39.311Z,33152
2018-01-24T09:55:49.264Z,46240
2018-01-24T09:56:58.964Z,50144
2018-01-24T09:58:08.683Z,36544
2018-01-24T09:59:18.650Z,35168
2018-01-24T10:00:28.601Z,32224
2018-01-24T10:01:38.580Z,31552
2018-01-24T10:02:48.548Z,30048
2018-01-24T10:03:58.542Z,31200
2018-01-24T10:05:07.976Z,31360
2018-01-24T10:06:17.685Z,33184
2018-01-24T10:07:27.383Z,34048
2018-01-24T10:08:37.383Z,34016
2018-01-24T10:09:46.842Z,32672
2018-01-24T10:10:56.321Z,35328
2018-01-24T10:12:06.288Z,36480
2018-01-24T10:13:16.287Z,34528
2018-01-24T10:14:26.029Z,34528
2018-01-24T10:15:35.742Z,39424
2018-01-24T10:16:45.721Z,40480
2018-01-24T10:17:55.695Z,47584
2018-01-24T10:19:05.657Z,49600
2018-01-24T10:20:15.370Z,48224
2018-01-24T10:21:25.334Z,40224
2018-01-24T10:22:35.035Z,52928
2018-01-24T10:23:44.993Z,56352
2018-01-24T10:24:54.951Z,51200
2018-01-24T10:26:04.651Z,52864
2018-01-24T10:27:14.608Z,55776
2018-01-24T10:28:24.560Z,57760
2018-01-24T10:29:34.553Z,57184
2018-01-24T10:30:44.288Z,60320
2018-01-24T10:31:54.243Z,61248
2018-01-24T10:33:03.707Z,59232
2018-01-24T10:34:13.670Z,61056
2018-01-24T10:35:23.633Z,64064
2018-01-24T10:36:33.650Z,61792
2018-01-24T10:37:43.126Z,63136
2018-01-24T10:38:52.828Z,63456
2018-01-24T10:40:02.538Z,64480
2018-01-24T10:41:12.507Z,65824
2018-01-24T10:42:22.542Z,70752
2018-01-24T10:43:32.520Z,67424
2018-01-24T10:44:42.217Z,42240
2018-01-24T10:45:51.671Z,68960
2018-01-24T10:47:01.619Z,68064
2018-01-24T10:48:11.591Z,72320
2018-01-24T10:49:21.566Z,70624
2018-01-24T10:50:31.561Z,70848
2018-01-24T10:51:41.514Z,71968
2018-01-24T10:52:51.217Z,74528
2018-01-24T10:54:01.195Z,73312
2018-01-24T10:55:11.190Z,72032
2018-01-24T10:56:21.138Z,72224
2018-01-24T10:57:31.119Z,68288
2018-01-24T10:58:41.081Z,61504
2018-01-24T10:59:50.810Z,62400
2018-01-24T11:01:00.776Z,56128
2018-01-24T11:02:10.757Z,51296
2018-01-24T11:03:20.725Z,24448
2018-01-24T11:04:30.694Z,41344
2018-01-24T11:05:40.427Z,39008
2018-01-24T11:06:50.178Z,39584
2018-01-24T11:07:59.631Z,37056
2018-01-24T11:09:09.346Z,36192
2018-01-24T11:10:19.074Z,38144
2018-01-24T11:11:28.784Z,26784
2018-01-24T11:12:38.515Z,40960
2018-01-24T11:13:48.485Z,44928
2018-01-24T11:14:58.201Z,51520
2018-01-24T11:16:08.152Z,54912
2018-01-24T11:17:18.147Z,59808
2018-01-24T11:18:28.146Z,62880
2018-01-24T11:19:37.845Z,29760
2018-01-24T11:20:47.545Z,27680
2018-01-24T11:21:57.515Z,26144
2018-01-24T11:23:07.479Z,19552
2018-01-24T11:24:16.941Z,18272
2018-01-24T11:25:26.911Z,15028
2018-01-24T11:26:36.866Z,14616
2018-01-24T11:27:46.841Z,15884
2018-01-24T11:28:56.808Z,14584
2018-01-24T11:30:06.525Z,13784
2018-01-24T11:31:16.221Z,13500
2018-01-24T11:32:26.180Z,13548
2018-01-24T11:33:35.900Z,13144
2018-01-24T11:34:45.602Z,12624
2018-01-24T11:35:55.292Z,12664
2018-01-24T11:37:05.264Z,10568
2018-01-24T11:38:15.234Z,9548
2018-01-24T11:39:25.230Z,8580
2018-01-24T11:40:34.927Z,8452
2018-01-24T11:41:44.621Z,8004
2018-01-24T11:42:54.067Z,7940
2018-01-24T11:44:04.048Z,7832
2018-01-24T11:45:14.035Z,6472
2018-01-24T11:46:24.123Z,6032
2018-01-24T11:47:33.859Z,6072
2018-01-24T11:48:43.306Z,5840
2018-01-24T11:49:53.278Z,5540
2018-01-24T11:51:02.986Z,5188
2018-01-24T11:52:12.980Z,5164
2018-01-24T11:53:22.698Z,5568
2018-01-24T11:54:32.680Z,5716
2018-01-24T11:55:42.627Z,5216
2018-01-24T11:56:52.357Z,5124
2018-01-24T11:58:02.327Z,5024
2018-01-24T11:59:12.075Z,5236
2018-01-24T12:00:22.053Z,5408
2018-01-24T12:01:31.234Z,5668
2018-01-24T12:02:41.189Z,6376
2018-01-24T12:03:50.889Z,5772
2018-01-24T12:05:00.577Z,5508
2018-01-24T12:06:10.561Z,5152
2018-01-24T12:07:20.551Z,5188
2018-01-24T12:08:30.254Z,5244
2018-01-24T12:09:40.210Z,5716
2018-01-24T12:10:49.915Z,6588
2018-01-24T12:11:59.634Z,6808
2018-01-24T12:13:09.616Z,7520
2018-01-24T12:14:19.601Z,7672
2018-01-24T12:15:29.052Z,7748
2018-01-24T12:16:39.065Z,7668
2018-01-24T12:17:48.758Z,7116
2018-01-24T12:18:58.748Z,7456
2018-01-24T12:20:08.697Z,7088
2018-01-24T12:21:18.665Z,6636
2018-01-24T12:22:28.366Z,6392
2018-01-24T12:23:38.342Z,6648
2018-01-24T12:24:48.318Z,7680
2018-01-24T12:25:58.283Z,7908
2018-01-24T12:27:08.040Z,8080
2018-01-24T12:28:17.480Z,8388
2018-01-24T12:29:27.446Z,9228
2018-01-24T12:30:37.412Z,11376
2018-01-24T12:31:47.380Z,11672
2018-01-24T12:32:57.340Z,10080
2018-01-24T12:34:07.039Z,9408
2018-01-24T12:35:16.994Z,10056
2018-01-24T12:36:26.683Z,11104
2018-01-24T12:37:36.636Z,10232
2018-01-24T12:38:46.602Z,9608
2018-01-24T12:39:56.572Z,9712
2018-01-24T12:41:06.567Z,8744
2018-01-24T12:42:16.328Z,8460
2018-01-24T12:43:26.320Z,8560
2018-01-24T12:44:36.087Z,8280
2018-01-24T12:45:45.774Z,8920
2018-01-24T12:46:55.737Z,8680
2018-01-24T12:48:05.698Z,8768
2018-01-24T12:49:15.668Z,8276
2018-01-24T12:50:25.374Z,8156
2018-01-24T12:51:35.319Z,8352
2018-01-24T12:52:45.033Z,8740
2018-01-24T12:53:54.992Z,8364
2018-01-24T12:55:04.720Z,7872
2018-01-24T12:56:14.438Z,7456
2018-01-24T12:57:24.125Z,7948
2018-01-24T12:58:33.567Z,7696
2018-01-24T12:59:43.776Z,7052
2018-01-24T13:00:53.734Z,5968
2018-01-24T13:02:03.753Z,5396
2018-01-24T13:03:13.698Z,5656
2018-01-24T13:04:23.657Z,6052
2018-01-24T13:05:33.601Z,6120
2018-01-24T13:06:43.573Z,6372
2018-01-24T13:07:53.516Z,6580
2018-01-24T13:09:03.494Z,6740
2018-01-24T13:10:13.584Z,6208
2018-01-24T13:11:23.542Z,6712
2018-01-24T13:12:33.497Z,6712
2018-01-24T13:13:43.499Z,6804
2018-01-24T13:14:53.246Z,6576
2018-01-24T13:16:03.317Z,6368
2018-01-24T13:17:13.282Z,6248
2018-01-24T13:18:23.242Z,6160
2018-01-24T13:19:33.251Z,5888
2018-01-24T13:20:42.708Z,5500
2018-01-24T13:21:52.441Z,5268
2018-01-24T13:23:02.413Z,5676
2018-01-24T13:24:12.130Z,5628
2018-01-24T13:25:22.111Z,5440
2018-01-24T13:26:31.808Z,5440
2018-01-24T13:27:41.537Z,4872
2018-01-24T13:28:51.521Z,5080
2018-01-24T13:30:01.222Z,5272
2018-01-24T13:31:11.178Z,5000
2018-01-24T13:32:21.139Z,5248
2018-01-24T13:33:30.864Z,5232
2018-01-24T13:34:40.817Z,5264
2018-01-24T13:35:50.762Z,5036
2018-01-24T13:37:00.533Z,4760
2018-01-24T13:38:10.235Z,4980
2018-01-24T13:39:20.046Z,5236
2018-01-24T13:40:30.180Z,5228
2018-01-24T13:41:40.156Z,4956
2018-01-24T13:42:50.124Z,4540
2018-01-24T13:44:00.154Z,4628
2018-01-24T13:45:10.332Z,4760
2018-01-24T13:46:20.304Z,4212
2018-01-24T13:47:29.990Z,3876
2018-01-24T13:48:39.715Z,3956
2018-01-24T13:49:49.451Z,3872
2018-01-24T13:50:59.424Z,3860
2018-01-24T13:52:09.447Z,3620
2018-01-24T13:53:19.424Z,3316
2018-01-24T13:54:29.398Z,3136
2018-01-24T13:55:39.578Z,3184
2018-01-24T13:56:49.263Z,2788
2018-01-24T13:57:59.223Z,2620
2018-01-24T13:59:09.196Z,2620
2018-01-24T14:00:19.176Z,2452
2018-01-24T14:01:29.132Z,2288
2018-01-24T14:02:39.089Z,2344
2018-01-24T14:03:49.056Z,2396
2018-01-24T14:04:58.772Z,2300
2018-01-24T14:06:08.480Z,2176
2018-01-24T14:07:18.176Z,2136
2018-01-24T14:08:27.899Z,2036
2018-01-24T14:09:37.858Z,2004
2018-01-24T14:10:47.568Z,2016
2018-01-24T14:11:57.528Z,1968
2018-01-24T14:13:07.484Z,2060
2018-01-24T14:14:17.439Z,2072
2018-01-24T14:15:27.387Z,2040
2018-01-24T14:16:37.100Z,1992
2018-01-24T14:17:47.053Z,1952
2018-01-24T14:18:57.026Z,2008
2018-01-24T14:20:06.998Z,1944
2018-01-24T14:21:17.017Z,1904
2018-01-24T14:22:27.234Z,1928
2018-01-24T14:23:36.723Z,1808
2018-01-24T14:24:46.685Z,1828
2018-01-24T14:25:56.382Z,1788
2018-01-24T14:27:06.331Z,1908
2018-01-24T14:28:16.296Z,2360
2018-01-24T14:29:26.014Z,2572
2018-01-24T14:30:35.974Z,2408
2018-01-24T14:31:45.688Z,2344
2018-01-24T14:32:55.389Z,2392
2018-01-24T14:34:05.101Z,2404
2018-01-24T14:35:15.048Z,2396
2018-01-24T14:36:24.994Z,2484
2018-01-24T14:37:34.937Z,2540
2018-01-24T14:38:44.924Z,2520
2018-01-24T14:39:54.625Z,2344
2018-01-24T14:41:04.581Z,2308
2018-01-24T14:42:14.282Z,2336
2018-01-24T14:43:24.236Z,2336
2018-01-24T14:44:34.199Z,2428
2018-01-24T14:45:44.157Z,2432
2018-01-24T14:46:54.118Z,2244
2018-01-24T14:48:03.835Z,2176
2018-01-24T14:49:13.895Z,2336
2018-01-24T14:50:23.618Z,2836
2018-01-24T14:51:33.577Z,2828
2018-01-24T14:52:43.548Z,2564
2018-01-24T14:53:53.504Z,2392
2018-01-24T14:55:03.203Z,2332
2018-01-24T14:56:13.151Z,2308
2018-01-24T14:57:23.148Z,2160
2018-01-24T14:58:33.096Z,1916
2018-01-24T14:59:42.801Z,1724
2018-01-24T15:00:52.750Z,1640
2018-01-24T15:02:02.460Z,1592
2018-01-24T15:03:12.435Z,1536
2018-01-24T15:04:22.399Z,1412
2018-01-24T15:05:32.087Z,1380
2018-01-24T15:06:41.811Z,1292
2018-01-24T15:07:51.768Z,1260
2018-01-24T15:09:01.737Z,1260
2018-01-24T15:10:11.441Z,1240
2018-01-24T15:11:21.400Z,1208
2018-01-24T15:12:31.347Z,1204
2018-01-24T15:13:41.310Z,1228
2018-01-24T15:14:51.261Z,1272
2018-01-24T15:16:01.217Z,1292
2018-01-24T15:17:11.189Z,1192
2018-01-24T15:18:21.161Z,1108
2018-01-24T15:19:31.129Z,1068
2018-01-24T15:20:41.092Z,992
2018-01-24T15:21:51.064Z,900
2018-01-24T15:23:00.783Z,780
2018-01-24T15:24:10.499Z,664
2018-01-24T15:25:20.190Z,584
2018-01-24T15:26:30.190Z,552
2018-01-24T15:27:40.168Z,524
2018-01-24T15:28:50.076Z,500
2018-01-24T15:29:59.825Z,452
2018-01-24T15:31:09.483Z,412
2018-01-24T15:32:19.482Z,384
2018-01-24T15:33:29.416Z,384
2018-01-24T15:34:39.099Z,392
2018-01-24T15:35:49.053Z,356
2018-01-24T15:36:58.757Z,304
2018-01-24T15:38:08.707Z,256
2018-01-24T15:39:18.678Z,212
2018-01-24T15:40:28.640Z,192
2018-01-24T15:41:38.610Z,188
2018-01-24T15:42:48.568Z,184
2018-01-24T15:43:58.269Z,184
2018-01-24T15:45:07.987Z,164
2018-01-24T15:46:17.935Z,148
2018-01-24T15:47:27.900Z,140
2018-01-24T15:48:37.607Z,128
2018-01-24T15:49:47.550Z,112
2018-01-24T15:50:57.256Z,100
2018-01-24T15:52:06.972Z,88
2018-01-24T15:53:16.913Z,76
2018-01-24T15:54:26.353Z,64
2018-01-24T15:55:36.298Z,52
2018-01-24T15:56:46.503Z,44
2018-01-24T15:57:56.469Z,40
2018-01-24T15:59:06.435Z,32
2018-01-24T16:00:16.140Z,28
2018-01-24T16:01:25.876Z,24
2018-01-24T16:02:35.887Z,20
2018-01-24T16:03:45.850Z,16
2018-01-24T16:04:55.570Z,16
2018-01-24T16:06:05.261Z,12
2018-01-24T16:07:15.216Z,8
2018-01-24T16:08:25.181Z,8